createdAt,value
2019-04-26T05:02:59.682Z,28.40
2019-04-26T05:06:07.740Z,23.02
2019-04-26T05:08:38.913Z,24.52
2019-04-26T05:11:20.916Z,25.00
2019-04-26T05:13:59.920Z,24.70
2019-04-26T05:16:40.163Z,24.77
2019-04-26T05:19:29.187Z,32.05
2019-04-26T05:22:17.021Z,31.73
2019-04-26T05:25:17.573Z,24.67
2019-04-26T05:28:09.945Z,19.25
2019-04-26T05:31:08.648Z,25.45
2019-04-26T05:34:00.593Z,26.82
2019-04-26T05:36:36.322Z,31.73
2019-04-26T05:39:21.501Z,29.35
2019-04-26T05:42:12.036Z,26.15
2019-04-26T05:45:07.563Z,28.50
2019-04-26T05:48:06.246Z,26.37
2019-04-26T05:50:50.864Z,21.93
2019-04-26T05:54:04.049Z,28.47
2019-04-26T05:57:06.527Z,31.62
2019-04-26T06:00:26.969Z,26.68
2019-04-26T06:03:28.338Z,25.35
2019-04-26T06:06:20.765Z,23.77
2019-04-26T06:09:01.736Z,27.07
2019-04-26T06:11:44.088Z,28.83
2019-04-26T06:14:39.932Z,26.90
2019-04-26T06:17:29.100Z,25.48
2019-04-26T06:20:23.615Z,22.73
2019-04-26T06:22:58.231Z,28.85
2019-04-26T06:26:15.039Z,28.40
2019-04-26T06:29:03.334Z,27.20
2019-04-26T06:31:36.436Z,28.27
2019-04-26T06:34:18.326Z,24.75
2019-04-26T06:36:56.135Z,21.73
2019-04-26T06:39:38.480Z,25.97
2019-04-26T06:42:20.299Z,25.88
2019-04-26T06:45:17.508Z,19.00
2019-04-26T06:48:25.572Z,25.37
2019-04-26T06:51:23.483Z,26.25
2019-04-26T06:53:48.183Z,23.98
2019-04-26T06:56:22.864Z,21.05
2019-04-26T06:59:36.214Z,27.62
2019-04-26T07:02:06.707Z,58.45
2019-04-26T07:04:39.778Z,29.12
2019-04-26T07:07:31.070Z,16.80
2019-04-26T07:10:10.988Z,24.43
2019-04-26T07:13:02.239Z,25.10
2019-04-26T07:15:51.656Z,23.90
2019-04-26T07:18:41.155Z,27.93
2019-04-26T07:21:36.925Z,21.73
2019-04-26T07:24:35.179Z,22.93
2019-04-26T07:27:13.890Z,20.08
2019-04-26T07:30:09.849Z,23.52
2019-04-26T07:33:12.826Z,24.10
2019-04-26T07:35:58.905Z,22.75
2019-04-26T07:38:52.885Z,21.70
2019-04-26T07:41:47.570Z,20.80
2019-04-26T07:44:33.843Z,29.05
2019-04-26T07:47:26.656Z,27.77
2019-04-26T07:50:16.413Z,19.98
2019-04-26T07:53:24.610Z,20.02
2019-04-26T07:56:07.123Z,23.42
2019-04-26T07:58:55.597Z,22.48
2019-04-26T08:01:36.447Z,18.90
2019-04-26T08:04:11.539Z,22.58
2019-04-26T08:06:59.554Z,21.68
2019-04-26T08:09:32.593Z,24.90
2019-04-26T08:12:10.017Z,23.22
2019-04-26T08:14:47.588Z,19.40
2019-04-26T08:17:28.121Z,29.65
2019-04-26T08:20:28.142Z,18.48
2019-04-26T08:23:02.619Z,19.17
2019-04-26T08:25:34.555Z,21.95
2019-04-26T08:28:08.415Z,19.02
2019-04-26T08:30:44.914Z,19.48
2019-04-26T08:33:16.164Z,21.60
2019-04-26T08:35:52.945Z,17.77
2019-04-26T08:38:22.758Z,17.60
2019-04-26T08:40:53.706Z,18.80
2019-04-26T08:43:44.251Z,24.60
2019-04-26T08:46:32.320Z,19.65
2019-04-26T08:49:08.314Z,16.40
2019-04-26T08:51:41.942Z,14.18
2019-04-26T08:54:14.180Z,23.47
2019-04-26T08:56:47.256Z,17.12
2019-04-26T08:59:20.301Z,17.87
2019-04-26T09:01:55.970Z,19.92
2019-04-26T09:04:43.416Z,18.73
2019-04-26T09:07:20.777Z,16.10
2019-04-26T09:09:57.449Z,21.02
2019-04-26T09:12:28.084Z,19.27
2019-04-26T09:15:01.169Z,21.37
2019-04-26T09:17:33.816Z,18.55
2019-04-26T09:20:07.959Z,18.00
2019-04-26T09:22:46.760Z,17.85
2019-04-26T09:25:22.696Z,18.95
2019-04-26T09:27:58.965Z,16.32
2019-04-26T09:30:34.131Z,12.88
2019-04-26T09:33:10.140Z,22.42
2019-04-26T09:35:40.213Z,13.20
2019-04-26T09:38:11.170Z,18.62
2019-04-26T09:40:41.087Z,16.55
2019-04-26T09:43:15.247Z,18.27
2019-04-26T09:45:52.058Z,19.85
2019-04-26T09:48:23.662Z,16.80
2019-04-26T09:50:55.462Z,18.73
2019-04-26T09:53:25.421Z,19.10
2019-04-26T09:55:55.422Z,14.85
2019-04-26T09:58:26.772Z,18.05
2019-04-26T10:00:57.079Z,20.80
2019-04-26T10:03:27.040Z,11.97
2019-04-26T10:05:57.135Z,11.20
2019-04-26T10:08:27.180Z,16.62
2019-04-26T10:10:58.274Z,16.75
2019-04-26T10:13:29.870Z,21.85
2019-04-26T10:16:13.464Z,9.43
2019-04-26T10:18:45.065Z,13.78
2019-04-26T10:21:15.069Z,12.07
2019-04-26T10:23:45.031Z,16.90
2019-04-26T10:26:15.021Z,13.13
2019-04-26T10:28:46.749Z,15.45
2019-04-26T10:31:17.185Z,9.90
2019-04-26T10:33:47.351Z,16.05
2019-04-26T10:36:17.413Z,14.35
2019-04-26T10:38:47.368Z,17.48
2019-04-26T10:41:17.536Z,11.15
2019-04-26T10:43:47.548Z,16.07
2019-04-26T10:46:17.678Z,14.05
2019-04-26T10:48:49.928Z,19.73
2019-04-26T10:51:20.894Z,12.80
2019-04-26T10:53:55.340Z,14.33
2019-04-26T10:56:39.039Z,13.75
2019-04-26T10:59:11.019Z,14.45
2019-04-26T11:01:41.326Z,13.30
2019-04-26T11:04:11.358Z,10.95
2019-04-26T11:06:43.260Z,18.32
2019-04-26T11:09:13.273Z,17.70
2019-04-26T11:11:43.321Z,16.30
2019-04-26T11:14:13.294Z,12.28
2019-04-26T11:16:43.416Z,12.28
2019-04-26T11:19:14.442Z,8.53
2019-04-26T11:21:44.514Z,15.65
2019-04-26T11:24:15.168Z,13.05
2019-04-26T11:26:46.089Z,12.78
2019-04-26T11:29:16.064Z,9.60
2019-04-26T11:31:46.058Z,13.65
2019-04-26T11:34:19.243Z,16.42
2019-04-26T11:36:47.633Z,11.28
2019-04-26T11:39:18.167Z,16.02
2019-04-26T11:41:48.269Z,18.23
2019-04-26T11:44:18.221Z,21.33
2019-04-26T11:46:48.257Z,15.80
2019-04-26T11:49:18.327Z,13.32
2019-04-26T11:51:48.398Z,10.88
2019-04-26T11:54:20.846Z,10.40
2019-04-26T11:56:50.408Z,15.32
2019-04-26T11:59:20.674Z,14.03
2019-04-26T12:01:50.706Z,13.28
2019-04-26T12:04:22.366Z,12.30
2019-04-26T12:06:57.010Z,9.45
2019-04-26T12:09:31.449Z,16.50
2019-04-26T12:14:33.514Z,9.83
2019-04-26T12:17:05.284Z,14.40
2019-04-26T12:19:35.375Z,12.45
2019-04-26T12:22:08.221Z,13.65
2019-04-26T12:24:37.619Z,10.03
2019-04-26T12:27:10.118Z,15.70
2019-04-26T12:29:39.357Z,14.90
2019-04-26T12:32:09.440Z,15.60
2019-04-26T12:34:40.518Z,15.72
2019-04-26T12:37:12.608Z,19.00
2019-04-26T12:39:42.086Z,11.55
2019-04-26T12:42:13.701Z,14.38
2019-04-26T12:44:55.585Z,10.35
2019-04-26T12:47:27.201Z,11.00
2019-04-26T12:49:58.870Z,11.22
2019-04-26T12:52:28.961Z,16.65
2019-04-26T12:54:58.921Z,12.10
2019-04-26T12:57:28.937Z,11.28
2019-04-26T13:00:01.765Z,10.25
2019-04-26T13:02:30.802Z,12.18
2019-04-26T13:05:00.851Z,12.93
2019-04-26T13:07:31.194Z,9.80
2019-04-26T13:10:21.240Z,11.85
2019-04-26T13:13:10.811Z,17.60
2019-04-26T13:15:56.624Z,17.70
2019-04-26T13:18:26.948Z,18.73
2019-04-26T13:20:58.518Z,16.95
2019-04-26T13:23:31.106Z,17.52
2019-04-26T13:26:01.553Z,19.85
2019-04-26T13:28:32.771Z,13.68
2019-04-26T13:31:02.767Z,15.28
2019-04-26T13:33:32.721Z,15.50
2019-04-26T13:36:03.354Z,16.32
2019-04-26T13:38:33.562Z,14.73
2019-04-26T13:41:06.212Z,16.12
2019-04-26T13:43:35.987Z,23.65
2019-04-26T13:46:10.428Z,14.10
2019-04-26T13:48:43.875Z,15.45
2019-04-26T13:51:28.366Z,12.65
2019-04-26T13:53:58.333Z,18.32
2019-04-26T13:56:28.315Z,19.50
2019-04-26T13:58:59.815Z,16.48
2019-04-26T14:01:29.951Z,13.85
2019-04-26T14:04:02.462Z,14.87
2019-04-26T14:06:32.577Z,18.62
2019-04-26T14:09:03.005Z,11.55
2019-04-26T14:11:34.769Z,11.65
2019-04-26T14:14:04.735Z,10.65
2019-04-26T14:16:34.970Z,11.57
2019-04-26T14:19:05.354Z,14.35
2019-04-26T14:21:35.292Z,15.72
2019-04-26T14:24:13.055Z,15.58
2019-04-26T14:26:47.525Z,10.43
2019-04-26T14:31:47.245Z,9.80
2019-04-26T14:34:18.122Z,12.60
2019-04-26T14:36:48.350Z,7.22
2019-04-26T14:39:20.983Z,15.88
2019-04-26T14:41:52.725Z,12.28
2019-04-26T14:44:21.748Z,13.50
2019-04-26T14:46:53.339Z,8.75
2019-04-26T14:49:24.984Z,10.95
2019-04-26T14:51:56.952Z,15.32
2019-04-26T14:54:26.673Z,12.90
2019-04-26T14:56:59.867Z,7.97
2019-04-26T14:59:46.951Z,9.13
2019-04-26T15:02:30.200Z,12.73
2019-04-26T15:05:18.551Z,9.80
2019-04-26T15:07:51.521Z,11.40
2019-04-26T15:10:21.576Z,11.15
2019-04-26T15:12:58.361Z,16.60
2019-04-26T15:15:26.883Z,13.98
2019-04-26T15:17:59.586Z,18.00
2019-04-26T15:20:27.388Z,16.37
2019-04-26T15:22:57.398Z,18.48
2019-04-26T15:25:27.490Z,15.18
2019-04-26T15:27:58.013Z,32.48
2019-04-26T15:30:28.238Z,7.97
2019-04-26T15:32:58.265Z,8.60
2019-04-26T15:35:28.378Z,11.95
2019-04-26T15:38:01.481Z,8.80
2019-04-26T15:40:36.494Z,11.33
2019-04-26T15:43:24.046Z,8.73
2019-04-26T15:47:43.194Z,7.37
2019-04-26T15:50:24.269Z,9.60
2019-04-26T15:52:54.567Z,5.75
2019-04-26T15:55:25.122Z,4.10
2019-04-26T15:57:55.357Z,8.15
2019-04-26T16:00:28.434Z,11.03
2019-04-26T16:02:58.686Z,3.72
2019-04-26T16:05:30.939Z,6.03
2019-04-26T16:08:04.345Z,4.78
2019-04-26T16:10:38.199Z,11.75
2019-04-26T16:13:17.985Z,6.72
2019-04-26T16:15:38.867Z,5.65
2019-04-26T16:18:10.582Z,4.60
2019-04-26T16:20:42.830Z,9.40
2019-04-26T16:23:13.471Z,7.42
2019-04-26T16:25:43.847Z,5.45
2019-04-26T16:28:27.174Z,9.93
2019-04-26T16:31:15.419Z,8.03
2019-04-26T16:33:48.592Z,4.70
2019-04-26T16:36:18.935Z,6.80
2019-04-26T16:38:56.102Z,8.23
2019-04-26T16:41:21.911Z,11.53
2019-04-26T16:43:54.611Z,6.30
2019-04-26T16:46:25.018Z,8.25
2019-04-26T16:49:03.805Z,7.80
2019-04-26T16:51:27.382Z,5.62
2019-04-26T16:54:06.981Z,5.45
2019-04-26T16:56:29.376Z,6.37
2019-04-26T16:58:59.820Z,10.55
2019-04-26T17:01:30.461Z,12.40
2019-04-26T17:04:00.752Z,5.58
2019-04-26T17:06:31.208Z,14.78
2019-04-26T17:09:05.112Z,11.97
2019-04-26T17:11:41.074Z,9.67
2019-04-26T17:14:10.223Z,10.40
2019-04-26T17:16:42.433Z,11.90
2019-04-26T17:19:13.683Z,14.65
2019-04-26T17:21:56.640Z,10.15
2019-04-26T17:24:38.067Z,8.43
2019-04-26T17:27:09.859Z,10.48
2019-04-26T17:29:42.323Z,13.37
2019-04-26T17:32:17.270Z,10.60
2019-04-26T17:34:46.236Z,17.02
2019-04-26T17:37:17.596Z,13.55
2019-04-26T17:39:52.151Z,15.10
2019-04-26T17:42:21.032Z,18.42
2019-04-26T17:44:51.848Z,19.27
2019-04-26T17:47:22.461Z,18.20
2019-04-26T17:49:53.038Z,21.02
2019-04-26T17:52:23.823Z,17.95
2019-04-26T17:54:57.139Z,19.40
2019-04-26T17:57:34.819Z,20.40
2019-04-26T18:00:07.329Z,24.00
2019-04-26T18:02:42.061Z,25.15
2019-04-26T18:05:08.374Z,23.65
2019-04-26T18:07:43.674Z,24.52
2019-04-26T18:10:13.447Z,21.23
2019-04-26T18:12:45.971Z,27.22
2019-04-26T18:15:19.265Z,22.80
2019-04-26T18:17:53.680Z,23.38
2019-04-26T18:20:41.424Z,30.88
2019-04-26T18:23:15.357Z,27.93
2019-04-26T18:25:46.977Z,26.68
2019-04-26T18:28:17.911Z,31.80
2019-04-26T18:30:50.078Z,25.88
2019-04-26T18:33:24.153Z,34.50
2019-04-26T18:35:57.474Z,39.90
2019-04-26T18:38:26.372Z,33.28
2019-04-26T18:41:00.985Z,38.33
2019-04-26T18:43:29.475Z,27.90
2019-04-26T18:46:06.625Z,28.83
2019-04-26T18:48:40.728Z,27.90
2019-04-26T18:51:11.088Z,26.40
2019-04-26T18:53:43.819Z,29.30
2019-04-26T18:56:15.121Z,26.27
2019-04-26T18:58:45.956Z,31.68
2019-04-26T19:01:18.164Z,28.30
2019-04-26T19:03:49.471Z,25.95
2019-04-26T19:06:29.778Z,24.82
2019-04-26T19:08:57.535Z,19.42
2019-04-26T19:11:25.970Z,20.75
2019-04-26T19:14:15.274Z,25.05
2019-04-26T19:16:58.712Z,23.70
2019-04-26T19:19:38.066Z,25.00
2019-04-26T19:22:15.871Z,22.20
2019-04-26T19:24:42.619Z,15.68
2019-04-26T19:27:13.689Z,14.47
2019-04-26T19:29:45.953Z,16.95
2019-04-26T19:32:21.274Z,18.23
2019-04-26T19:34:54.117Z,15.40
2019-04-26T19:37:25.592Z,15.63
2019-04-26T19:39:56.768Z,15.23
2019-04-26T19:42:30.878Z,16.00
2019-04-26T19:45:11.919Z,13.78
2019-04-26T19:47:42.286Z,14.40
2019-04-26T19:50:13.941Z,18.05
2019-04-26T19:52:51.729Z,17.92
2019-04-26T19:55:31.903Z,21.50
2019-04-26T19:58:20.369Z,14.70
2019-04-26T20:00:49.431Z,21.25
2019-04-26T20:03:21.596Z,15.72
2019-04-26T20:05:53.465Z,18.27
2019-04-26T20:08:24.019Z,15.28
2019-04-26T20:10:54.610Z,15.85
2019-04-26T20:13:25.455Z,14.50
2019-04-26T20:16:02.710Z,21.12
2019-04-26T20:18:32.748Z,17.25
2019-04-26T20:21:06.497Z,15.28
2019-04-26T20:23:38.343Z,17.55
2019-04-26T20:26:09.135Z,13.35
2019-04-26T20:28:39.820Z,15.98
2019-04-26T20:31:30.786Z,19.32
2019-04-26T20:34:05.480Z,13.98
2019-04-26T20:36:40.756Z,13.98
2019-04-26T20:39:08.888Z,15.08
2019-04-26T20:41:40.884Z,15.40
2019-04-26T20:44:12.769Z,16.05
2019-04-26T20:46:43.580Z,17.12
2019-04-26T20:49:14.110Z,16.93
2019-04-26T20:51:46.270Z,15.00
2019-04-26T20:54:17.461Z,16.10
2019-04-26T20:56:52.552Z,23.27
2019-04-26T20:59:23.505Z,17.90
2019-04-26T21:02:03.482Z,14.70
2019-04-26T21:04:36.878Z,14.75
2019-04-26T21:06:58.366Z,13.22
2019-04-26T21:09:30.122Z,14.80
2019-04-26T21:12:01.877Z,14.25
2019-04-26T21:14:32.802Z,11.30
2019-04-26T21:17:05.006Z,11.30
2019-04-26T21:19:35.598Z,11.60
2019-04-26T21:22:06.535Z,12.85
2019-04-26T21:24:46.129Z,11.80
2019-04-26T21:27:18.447Z,8.10
